sensor_id;sensor_type;location;lat;lon;timestamp;temperature;humidity
23697;DHT22;48864;50.820;4.400;2022-07-29T00:00:05;20.10;99.90
23697;DHT22;48864;50.820;4.400;2022-07-29T00:02:31;20.10;99.90
23697;DHT22;48864;50.820;4.400;2022-07-29T00:04:57;20.10;99.90
23697;DHT22;48864;50.820;4.400;2022-07-29T00:07:23;20.20;99.90
23697;DHT22;48864;50.820;4.400;2022-07-29T00:09:49;20.10;99.90
23697;DHT22;48864;50.820;4.400;2022-07-29T00:12:15;20.10;99.90
23697;DHT22;48864;50.820;4.400;2022-07-29T00:14:41;20.10;99.90
23697;DHT22;48864;50.820;4.400;2022-07-29T00:17:06;20.10;99.90
23697;DHT22;48864;50.820;4.400;2022-07-29T00:19:32;20.00;99.90
23697;DHT22;48864;50.820;4.400;2022-07-29T00:21:59;19.90;99.90
23697;DHT22;48864;50.820;4.400;2022-07-29T00:24:25;19.90;99.90
23697;DHT22;48864;50.820;4.400;2022-07-29T00:26:50;20.00;99.90
23697;DHT22;48864;50.820;4.400;2022-07-29T00:29:16;19.90;99.90
23697;DHT22;48864;50.820;4.400;2022-07-29T00:31:41;19.90;99.90
23697;DHT22;48864;50.820;4.400;2022-07-29T00:34:07;19.80;99.90
23697;DHT22;48864;50.820;4.400;2022-07-29T00:36:52;19.80;99.90
23697;DHT22;48864;50.820;4.400;2022-07-29T00:39:18;19.80;99.90
23697;DHT22;48864;50.820;4.400;2022-07-29T00:41:43;19.90;99.90
23697;DHT22;48864;50.820;4.400;2022-07-29T00:44:09;20.00;99.90
23697;DHT22;48864;50.820;4.400;2022-07-29T00:46:35;20.00;99.90
23697;DHT22;48864;50.820;4.400;2022-07-29T00:49:00;19.90;99.90
23697;DHT22;48864;50.820;4.400;2022-07-29T00:51:27;19.90;99.90
23697;DHT22;48864;50.820;4.400;2022-07-29T00:53:53;19.80;99.90
23697;DHT22;48864;50.820;4.400;2022-07-29T00:56:19;19.80;99.90
23697;DHT22;48864;50.820;4.400;2022-07-29T00:58:46;19.70;99.90
23697;DHT22;48864;50.820;4.400;2022-07-29T01:01:13;19.70;99.90
23697;DHT22;48864;50.820;4.400;2022-07-29T01:03:39;19.70;99.90
23697;DHT22;48864;50.820;4.400;2022-07-29T01:06:04;19.70;99.90
23697;DHT22;48864;50.820;4.400;2022-07-29T01:08:31;19.70;99.90
23697;DHT22;48864;50.820;4.400;2022-07-29T01:10:59;19.80;99.90
23697;DHT22;48864;50.820;4.400;2022-07-29T01:13:25;19.70;99.90
23697;DHT22;48864;50.820;4.400;2022-07-29T01:16:03;19.70;99.90
23697;DHT22;48864;50.820;4.400;2022-07-29T01:18:36;19.60;99.90
23697;DHT22;48864;50.820;4.400;2022-07-29T01:21:32;19.60;99.90
23697;DHT22;48864;50.820;4.400;2022-07-29T01:24:14;19.50;99.90
23697;DHT22;48864;50.820;4.400;2022-07-29T01:26:52;19.30;99.90
23697;DHT22;48864;50.820;4.400;2022-07-29T01:29:30;19.40;99.90
23697;DHT22;48864;50.820;4.400;2022-07-29T01:32:19;19.50;99.90
23697;DHT22;48864;50.820;4.400;2022-07-29T01:37:42;19.20;99.90
23697;DHT22;48864;50.820;4.400;2022-07-29T01:43:18;19.10;99.90
23697;DHT22;48864;50.820;4.400;2022-07-29T01:45:49;19.00;99.90
23697;DHT22;48864;50.820;4.400;2022-07-29T01:48:33;19.00;99.90
23697;DHT22;48864;50.820;4.400;2022-07-29T01:51:07;18.90;99.90
23697;DHT22;48864;50.820;4.400;2022-07-29T01:53:52;18.90;99.90
23697;DHT22;48864;50.820;4.400;2022-07-29T01:56:21;18.90;99.90
23697;DHT22;48864;50.820;4.400;2022-07-29T01:58:49;18.80;99.90
23697;DHT22;48864;50.820;4.400;2022-07-29T02:01:18;18.80;99.90
23697;DHT22;48864;50.820;4.400;2022-07-29T02:03:45;18.90;99.90
23697;DHT22;48864;50.820;4.400;2022-07-29T02:06:13;18.80;99.90
23697;DHT22;48864;50.820;4.400;2022-07-29T02:08:41;18.60;99.90
23697;DHT22;48864;50.820;4.400;2022-07-29T02:11:08;18.60;99.90
23697;DHT22;48864;50.820;4.400;2022-07-29T02:13:35;18.60;99.90
23697;DHT22;48864;50.820;4.400;2022-07-29T02:16:05;18.70;99.90
23697;DHT22;48864;50.820;4.400;2022-07-29T02:18:33;18.70;99.90
23697;DHT22;48864;50.820;4.400;2022-07-29T02:21:03;18.80;99.90
23697;DHT22;48864;50.820;4.400;2022-07-29T02:23:30;18.80;99.90
23697;DHT22;48864;50.820;4.400;2022-07-29T02:25:58;18.80;99.90
23697;DHT22;48864;50.820;4.400;2022-07-29T02:28:27;18.80;99.90
23697;DHT22;48864;50.820;4.400;2022-07-29T02:30:56;18.80;99.90
23697;DHT22;48864;50.820;4.400;2022-07-29T02:33:23;18.50;99.90
23697;DHT22;48864;50.820;4.400;2022-07-29T02:35:50;18.40;99.90
23697;DHT22;48864;50.820;4.400;2022-07-29T02:38:16;18.40;99.90
23697;DHT22;48864;50.820;4.400;2022-07-29T02:41:08;18.30;99.90
23697;DHT22;48864;50.820;4.400;2022-07-29T02:43:35;18.40;99.90
23697;DHT22;48864;50.820;4.400;2022-07-29T02:46:03;18.40;99.90
23697;DHT22;48864;50.820;4.400;2022-07-29T02:48:43;18.40;99.90
23697;DHT22;48864;50.820;4.400;2022-07-29T02:51:28;18.30;99.90
23697;DHT22;48864;50.820;4.400;2022-07-29T02:53:58;18.20;99.90
23697;DHT22;48864;50.820;4.400;2022-07-29T02:56:28;18.10;99.90
23697;DHT22;48864;50.820;4.400;2022-07-29T02:59:02;18.10;99.90
23697;DHT22;48864;50.820;4.400;2022-07-29T03:01:31;18.20;99.90
23697;DHT22;48864;50.820;4.400;2022-07-29T03:04:01;18.20;99.90
23697;DHT22;48864;50.820;4.400;2022-07-29T03:06:28;18.30;99.90
23697;DHT22;48864;50.820;4.400;2022-07-29T03:08:55;18.10;99.90
23697;DHT22;48864;50.820;4.400;2022-07-29T03:11:20;18.10;99.90
23697;DHT22;48864;50.820;4.400;2022-07-29T03:13:47;18.00;99.90
23697;DHT22;48864;50.820;4.400;2022-07-29T03:16:13;18.00;99.90
23697;DHT22;48864;50.820;4.400;2022-07-29T03:18:39;18.10;99.90
23697;DHT22;48864;50.820;4.400;2022-07-29T03:21:05;18.20;99.90
23697;DHT22;48864;50.820;4.400;2022-07-29T03:23:30;18.20;99.90
23697;DHT22;48864;50.820;4.400;2022-07-29T03:25:56;18.30;99.90
23697;DHT22;48864;50.820;4.400;2022-07-29T03:28:22;18.30;99.90
23697;DHT22;48864;50.820;4.400;2022-07-29T03:30:49;18.30;99.90
23697;DHT22;48864;50.820;4.400;2022-07-29T03:33:15;18.20;99.90
23697;DHT22;48864;50.820;4.400;2022-07-29T03:35:41;18.30;99.90
23697;DHT22;48864;50.820;4.400;2022-07-29T03:38:07;18.40;99.90
23697;DHT22;48864;50.820;4.400;2022-07-29T03:40:38;18.30;99.90
23697;DHT22;48864;50.820;4.400;2022-07-29T03:43:07;18.20;99.90
23697;DHT22;48864;50.820;4.400;2022-07-29T03:45:34;18.30;99.90
23697;DHT22;48864;50.820;4.400;2022-07-29T03:48:07;18.30;99.90
23697;DHT22;48864;50.820;4.400;2022-07-29T03:50:34;18.10;99.90
23697;DHT22;48864;50.820;4.400;2022-07-29T03:53:01;18.20;99.90
23697;DHT22;48864;50.820;4.400;2022-07-29T03:55:29;18.20;99.90
23697;DHT22;48864;50.820;4.400;2022-07-29T03:57:57;18.00;99.90
23697;DHT22;48864;50.820;4.400;2022-07-29T04:00:25;18.00;99.90
23697;DHT22;48864;50.820;4.400;2022-07-29T04:02:51;18.00;99.90
23697;DHT22;48864;50.820;4.400;2022-07-29T04:05:17;18.00;99.90
23697;DHT22;48864;50.820;4.400;2022-07-29T04:07:46;18.00;99.90
23697;DHT22;48864;50.820;4.400;2022-07-29T04:10:13;18.10;99.90
23697;DHT22;48864;50.820;4.400;2022-07-29T04:12:40;18.10;99.90
23697;DHT22;48864;50.820;4.400;2022-07-29T04:15:06;17.90;99.90
23697;DHT22;48864;50.820;4.400;2022-07-29T04:17:32;17.70;99.90
23697;DHT22;48864;50.820;4.400;2022-07-29T04:19:58;17.60;99.90
23697;DHT22;48864;50.820;4.400;2022-07-29T04:22:23;17.60;99.90
23697;DHT22;48864;50.820;4.400;2022-07-29T04:24:49;17.60;99.90
23697;DHT22;48864;50.820;4.400;2022-07-29T04:27:15;17.50;99.90
23697;DHT22;48864;50.820;4.400;2022-07-29T04:29:40;17.50;99.90
23697;DHT22;48864;50.820;4.400;2022-07-29T04:32:06;17.40;99.90
23697;DHT22;48864;50.820;4.400;2022-07-29T04:34:31;17.30;99.90
23697;DHT22;48864;50.820;4.400;2022-07-29T04:36:57;17.20;99.90
23697;DHT22;48864;50.820;4.400;2022-07-29T04:39:23;17.20;99.90
23697;DHT22;48864;50.820;4.400;2022-07-29T04:41:48;17.30;99.90
23697;DHT22;48864;50.820;4.400;2022-07-29T04:44:15;17.40;99.90
23697;DHT22;48864;50.820;4.400;2022-07-29T04:46:40;17.60;99.90
23697;DHT22;48864;50.820;4.400;2022-07-29T04:49:06;17.50;99.90
23697;DHT22;48864;50.820;4.400;2022-07-29T04:51:32;17.50;99.90
23697;DHT22;48864;50.820;4.400;2022-07-29T04:53:58;17.40;99.90
23697;DHT22;48864;50.820;4.400;2022-07-29T04:56:24;17.30;99.90
23697;DHT22;48864;50.820;4.400;2022-07-29T04:58:49;17.30;99.90
23697;DHT22;48864;50.820;4.400;2022-07-29T05:01:18;17.50;99.90
23697;DHT22;48864;50.820;4.400;2022-07-29T05:03:44;17.50;99.90
23697;DHT22;48864;50.820;4.400;2022-07-29T05:06:10;17.60;99.90
23697;DHT22;48864;50.820;4.400;2022-07-29T05:08:36;17.70;99.90
23697;DHT22;48864;50.820;4.400;2022-07-29T05:11:02;17.70;99.90
23697;DHT22;48864;50.820;4.400;2022-07-29T05:13:27;17.70;99.90
23697;DHT22;48864;50.820;4.400;2022-07-29T05:15:54;17.70;99.90
23697;DHT22;48864;50.820;4.400;2022-07-29T05:18:19;17.70;99.90
23697;DHT22;48864;50.820;4.400;2022-07-29T05:20:45;17.70;99.90
23697;DHT22;48864;50.820;4.400;2022-07-29T05:23:11;17.70;99.90
23697;DHT22;48864;50.820;4.400;2022-07-29T05:25:38;17.60;99.90
23697;DHT22;48864;50.820;4.400;2022-07-29T05:28:04;17.80;99.90
23697;DHT22;48864;50.820;4.400;2022-07-29T05:30:29;17.80;99.90
23697;DHT22;48864;50.820;4.400;2022-07-29T05:32:55;18.00;99.90
23697;DHT22;48864;50.820;4.400;2022-07-29T05:35:20;18.10;99.90
23697;DHT22;48864;50.820;4.400;2022-07-29T05:37:46;18.10;99.90
23697;DHT22;48864;50.820;4.400;2022-07-29T05:40:12;18.10;99.90
23697;DHT22;48864;50.820;4.400;2022-07-29T05:42:37;18.10;99.90
23697;DHT22;48864;50.820;4.400;2022-07-29T05:45:03;18.00;99.90
23697;DHT22;48864;50.820;4.400;2022-07-29T05:47:29;18.00;99.90
23697;DHT22;48864;50.820;4.400;2022-07-29T05:49:54;18.10;99.90
23697;DHT22;48864;50.820;4.400;2022-07-29T05:52:20;18.10;99.90
23697;DHT22;48864;50.820;4.400;2022-07-29T05:54:46;18.10;99.90
23697;DHT22;48864;50.820;4.400;2022-07-29T05:57:19;18.10;99.90
23697;DHT22;48864;50.820;4.400;2022-07-29T05:59:46;18.20;99.90
23697;DHT22;48864;50.820;4.400;2022-07-29T06:02:12;18.40;99.90
23697;DHT22;48864;50.820;4.400;2022-07-29T06:04:38;18.40;99.90
23697;DHT22;48864;50.820;4.400;2022-07-29T06:07:03;18.40;99.90
23697;DHT22;48864;50.820;4.400;2022-07-29T06:09:29;18.50;99.90
23697;DHT22;48864;50.820;4.400;2022-07-29T06:11:55;18.60;99.90
23697;DHT22;48864;50.820;4.400;2022-07-29T06:14:21;18.80;99.90
23697;DHT22;48864;50.820;4.400;2022-07-29T06:16:46;18.90;99.90
23697;DHT22;48864;50.820;4.400;2022-07-29T06:19:12;18.90;99.90
23697;DHT22;48864;50.820;4.400;2022-07-29T06:21:45;18.90;99.90
23697;DHT22;48864;50.820;4.400;2022-07-29T06:24:11;18.80;99.90
23697;DHT22;48864;50.820;4.400;2022-07-29T06:26:38;18.80;99.90
23697;DHT22;48864;50.820;4.400;2022-07-29T06:29:03;18.80;99.90
23697;DHT22;48864;50.820;4.400;2022-07-29T06:31:29;18.90;99.90
23697;DHT22;48864;50.820;4.400;2022-07-29T06:33:55;19.00;99.90
23697;DHT22;48864;50.820;4.400;2022-07-29T06:36:20;19.00;99.90
23697;DHT22;48864;50.820;4.400;2022-07-29T06:38:46;18.80;99.90
23697;DHT22;48864;50.820;4.400;2022-07-29T06:41:11;18.90;99.90
23697;DHT22;48864;50.820;4.400;2022-07-29T06:43:42;18.80;99.90
23697;DHT22;48864;50.820;4.400;2022-07-29T06:46:13;18.80;99.90
23697;DHT22;48864;50.820;4.400;2022-07-29T06:48:40;18.80;99.90
23697;DHT22;48864;50.820;4.400;2022-07-29T06:51:08;18.90;99.90
23697;DHT22;48864;50.820;4.400;2022-07-29T06:53:34;19.00;99.90
23697;DHT22;48864;50.820;4.400;2022-07-29T06:56:00;19.20;99.90
23697;DHT22;48864;50.820;4.400;2022-07-29T06:58:27;19.60;99.90
23697;DHT22;48864;50.820;4.400;2022-07-29T07:00:53;19.90;99.90
23697;DHT22;48864;50.820;4.400;2022-07-29T07:03:19;20.10;99.90
23697;DHT22;48864;50.820;4.400;2022-07-29T07:05:45;20.30;99.90
23697;DHT22;48864;50.820;4.400;2022-07-29T07:08:12;20.40;99.90
23697;DHT22;48864;50.820;4.400;2022-07-29T07:10:38;20.50;99.90
23697;DHT22;48864;50.820;4.400;2022-07-29T07:13:04;20.70;99.90
23697;DHT22;48864;50.820;4.400;2022-07-29T07:15:31;20.80;99.90
23697;DHT22;48864;50.820;4.400;2022-07-29T07:17:57;20.80;99.90
23697;DHT22;48864;50.820;4.400;2022-07-29T07:20:23;20.80;99.90
23697;DHT22;48864;50.820;4.400;2022-07-29T07:22:49;20.90;99.90
23697;DHT22;48864;50.820;4.400;2022-07-29T07:25:15;20.90;99.90
23697;DHT22;48864;50.820;4.400;2022-07-29T07:27:40;21.00;99.90
23697;DHT22;48864;50.820;4.400;2022-07-29T07:30:07;21.00;99.90
23697;DHT22;48864;50.820;4.400;2022-07-29T07:32:33;20.90;99.90
23697;DHT22;48864;50.820;4.400;2022-07-29T07:34:59;21.00;99.90
23697;DHT22;48864;50.820;4.400;2022-07-29T07:37:25;21.00;99.90
23697;DHT22;48864;50.820;4.400;2022-07-29T07:39:54;20.90;99.90
23697;DHT22;48864;50.820;4.400;2022-07-29T07:42:20;20.90;99.90
23697;DHT22;48864;50.820;4.400;2022-07-29T07:44:45;20.80;99.90
23697;DHT22;48864;50.820;4.400;2022-07-29T07:47:12;20.90;99.90
23697;DHT22;48864;50.820;4.400;2022-07-29T07:49:38;20.90;99.90
23697;DHT22;48864;50.820;4.400;2022-07-29T07:52:04;21.00;99.90
23697;DHT22;48864;50.820;4.400;2022-07-29T07:54:30;21.00;99.90
23697;DHT22;48864;50.820;4.400;2022-07-29T07:56:56;20.90;99.90
23697;DHT22;48864;50.820;4.400;2022-07-29T07:59:22;20.90;99.90
23697;DHT22;48864;50.820;4.400;2022-07-29T08:01:48;20.90;99.90
23697;DHT22;48864;50.820;4.400;2022-07-29T08:04:14;21.00;99.90
23697;DHT22;48864;50.820;4.400;2022-07-29T08:06:39;21.00;99.90
23697;DHT22;48864;50.820;4.400;2022-07-29T08:09:05;21.10;99.90
23697;DHT22;48864;50.820;4.400;2022-07-29T08:11:31;21.00;99.90
23697;DHT22;48864;50.820;4.400;2022-07-29T08:13:57;21.10;99.90
23697;DHT22;48864;50.820;4.400;2022-07-29T08:16:22;21.10;99.90
23697;DHT22;48864;50.820;4.400;2022-07-29T08:18:50;21.00;99.90
23697;DHT22;48864;50.820;4.400;2022-07-29T08:21:17;21.00;99.90
23697;DHT22;48864;50.820;4.400;2022-07-29T08:23:45;21.00;99.90
23697;DHT22;48864;50.820;4.400;2022-07-29T08:26:15;21.10;99.90
23697;DHT22;48864;50.820;4.400;2022-07-29T08:28:43;21.20;99.90
23697;DHT22;48864;50.820;4.400;2022-07-29T08:31:11;21.20;99.90
23697;DHT22;48864;50.820;4.400;2022-07-29T08:33:38;21.40;99.90
23697;DHT22;48864;50.820;4.400;2022-07-29T08:36:05;21.40;99.90
23697;DHT22;48864;50.820;4.400;2022-07-29T08:38:32;21.30;99.90
23697;DHT22;48864;50.820;4.400;2022-07-29T08:41:01;21.30;99.90
23697;DHT22;48864;50.820;4.400;2022-07-29T08:43:28;21.40;99.90
23697;DHT22;48864;50.820;4.400;2022-07-29T08:45:54;21.40;99.90
23697;DHT22;48864;50.820;4.400;2022-07-29T08:48:21;21.50;99.90
23697;DHT22;48864;50.820;4.400;2022-07-29T08:50:52;21.50;99.90
23697;DHT22;48864;50.820;4.400;2022-07-29T08:53:18;21.60;99.90
23697;DHT22;48864;50.820;4.400;2022-07-29T08:55:47;21.60;99.90
23697;DHT22;48864;50.820;4.400;2022-07-29T08:58:17;21.70;99.90
23697;DHT22;48864;50.820;4.400;2022-07-29T09:00:54;21.90;99.90
23697;DHT22;48864;50.820;4.400;2022-07-29T09:03:22;22.00;99.90
23697;DHT22;48864;50.820;4.400;2022-07-29T09:05:49;22.00;99.90
23697;DHT22;48864;50.820;4.400;2022-07-29T09:08:15;21.90;99.90
23697;DHT22;48864;50.820;4.400;2022-07-29T09:10:41;21.90;99.90
23697;DHT22;48864;50.820;4.400;2022-07-29T09:13:07;22.00;99.90
23697;DHT22;48864;50.820;4.400;2022-07-29T09:15:33;22.00;99.90
23697;DHT22;48864;50.820;4.400;2022-07-29T09:17:59;22.00;99.90
23697;DHT22;48864;50.820;4.400;2022-07-29T09:20:26;22.00;99.90
23697;DHT22;48864;50.820;4.400;2022-07-29T09:23:13;22.10;99.90
23697;DHT22;48864;50.820;4.400;2022-07-29T09:25:39;22.30;99.90
23697;DHT22;48864;50.820;4.400;2022-07-29T09:28:11;22.40;99.90
23697;DHT22;48864;50.820;4.400;2022-07-29T09:30:54;22.30;99.90
23697;DHT22;48864;50.820;4.400;2022-07-29T09:33:25;22.10;99.90
23697;DHT22;48864;50.820;4.400;2022-07-29T09:36:08;22.20;99.90
23697;DHT22;48864;50.820;4.400;2022-07-29T09:38:34;22.20;99.90
23697;DHT22;48864;50.820;4.400;2022-07-29T09:41:02;22.40;99.90
23697;DHT22;48864;50.820;4.400;2022-07-29T09:43:28;22.50;99.90
23697;DHT22;48864;50.820;4.400;2022-07-29T09:45:54;22.60;99.90
23697;DHT22;48864;50.820;4.400;2022-07-29T09:48:25;22.60;99.90
23697;DHT22;48864;50.820;4.400;2022-07-29T09:50:51;22.70;99.90
23697;DHT22;48864;50.820;4.400;2022-07-29T09:53:37;22.70;99.90
23697;DHT22;48864;50.820;4.400;2022-07-29T09:56:06;22.70;99.90
23697;DHT22;48864;50.820;4.400;2022-07-29T09:58:32;22.70;99.90
23697;DHT22;48864;50.820;4.400;2022-07-29T10:01:01;22.80;99.90
23697;DHT22;48864;50.820;4.400;2022-07-29T10:03:27;22.70;99.90
23697;DHT22;48864;50.820;4.400;2022-07-29T10:06:10;22.90;99.90
23697;DHT22;48864;50.820;4.400;2022-07-29T10:08:36;23.00;99.90
23697;DHT22;48864;50.820;4.400;2022-07-29T10:11:11;23.00;99.90
23697;DHT22;48864;50.820;4.400;2022-07-29T10:13:38;23.10;99.90
23697;DHT22;48864;50.820;4.400;2022-07-29T10:16:04;23.00;99.90
23697;DHT22;48864;50.820;4.400;2022-07-29T10:18:32;23.10;99.90
23697;DHT22;48864;50.820;4.400;2022-07-29T10:20:59;23.10;99.90
23697;DHT22;48864;50.820;4.400;2022-07-29T10:23:30;23.10;99.90
23697;DHT22;48864;50.820;4.400;2022-07-29T10:25:56;23.20;99.90
23697;DHT22;48864;50.820;4.400;2022-07-29T10:28:21;23.20;99.90
23697;DHT22;48864;50.820;4.400;2022-07-29T10:30:49;23.00;99.90
23697;DHT22;48864;50.820;4.400;2022-07-29T10:33:27;23.00;99.90
23697;DHT22;48864;50.820;4.400;2022-07-29T10:38:48;23.00;99.90
23697;DHT22;48864;50.820;4.400;2022-07-29T10:44:01;23.10;99.90
23697;DHT22;48864;50.820;4.400;2022-07-29T10:46:34;23.20;99.90
23697;DHT22;48864;50.820;4.400;2022-07-29T10:54:45;23.10;99.90
23697;DHT22;48864;50.820;4.400;2022-07-29T10:59:43;23.20;99.90
23697;DHT22;48864;50.820;4.400;2022-07-29T11:05:15;23.40;99.90
23697;DHT22;48864;50.820;4.400;2022-07-29T11:10:42;23.50;99.90
23697;DHT22;48864;50.820;4.400;2022-07-29T11:13:07;23.50;99.90
23697;DHT22;48864;50.820;4.400;2022-07-29T11:15:52;23.50;99.90
23697;DHT22;48864;50.820;4.400;2022-07-29T11:18:19;23.70;99.90
23697;DHT22;48864;50.820;4.400;2022-07-29T11:20:47;23.90;99.90
23697;DHT22;48864;50.820;4.400;2022-07-29T11:23:18;23.90;99.90
23697;DHT22;48864;50.820;4.400;2022-07-29T11:25:43;24.00;99.90
23697;DHT22;48864;50.820;4.400;2022-07-29T11:28:15;23.90;99.90
23697;DHT22;48864;50.820;4.400;2022-07-29T11:30:52;23.90;99.90
23697;DHT22;48864;50.820;4.400;2022-07-29T11:33:31;23.90;99.90
23697;DHT22;48864;50.820;4.400;2022-07-29T11:38:33;23.90;99.90
23697;DHT22;48864;50.820;4.400;2022-07-29T11:43:57;24.00;99.90
23697;DHT22;48864;50.820;4.400;2022-07-29T11:49:07;24.20;99.90
23697;DHT22;48864;50.820;4.400;2022-07-29T11:51:37;24.30;99.90
23697;DHT22;48864;50.820;4.400;2022-07-29T11:54:04;24.40;99.90
23697;DHT22;48864;50.820;4.400;2022-07-29T11:56:31;24.40;99.90
23697;DHT22;48864;50.820;4.400;2022-07-29T11:59:05;24.30;99.90
23697;DHT22;48864;50.820;4.400;2022-07-29T12:01:32;24.40;99.90
23697;DHT22;48864;50.820;4.400;2022-07-29T12:04:07;24.50;99.90
23697;DHT22;48864;50.820;4.400;2022-07-29T12:06:36;24.50;99.90
23697;DHT22;48864;50.820;4.400;2022-07-29T12:09:08;24.50;99.90
23697;DHT22;48864;50.820;4.400;2022-07-29T12:11:34;24.60;99.90
23697;DHT22;48864;50.820;4.400;2022-07-29T12:14:00;24.70;99.90
23697;DHT22;48864;50.820;4.400;2022-07-29T12:16:35;24.70;99.90
23697;DHT22;48864;50.820;4.400;2022-07-29T12:19:04;24.70;99.90
23697;DHT22;48864;50.820;4.400;2022-07-29T12:21:51;24.80;99.90
23697;DHT22;48864;50.820;4.400;2022-07-29T12:24:18;24.70;99.90
23697;DHT22;48864;50.820;4.400;2022-07-29T12:26:58;24.90;99.90
23697;DHT22;48864;50.820;4.400;2022-07-29T12:29:24;24.80;99.90
23697;DHT22;48864;50.820;4.400;2022-07-29T12:31:53;24.60;99.90
23697;DHT22;48864;50.820;4.400;2022-07-29T12:34:29;24.50;99.90
23697;DHT22;48864;50.820;4.400;2022-07-29T12:36:58;24.50;99.90
23697;DHT22;48864;50.820;4.400;2022-07-29T12:39:23;24.40;99.90
23697;DHT22;48864;50.820;4.400;2022-07-29T12:41:51;24.50;99.90
23697;DHT22;48864;50.820;4.400;2022-07-29T12:44:17;24.70;99.90
23697;DHT22;48864;50.820;4.400;2022-07-29T12:46:43;24.90;99.90
23697;DHT22;48864;50.820;4.400;2022-07-29T12:49:21;24.90;99.90
23697;DHT22;48864;50.820;4.400;2022-07-29T12:51:46;25.10;99.90
23697;DHT22;48864;50.820;4.400;2022-07-29T12:54:15;25.10;99.90
23697;DHT22;48864;50.820;4.400;2022-07-29T12:56:42;25.00;99.90
23697;DHT22;48864;50.820;4.400;2022-07-29T13:02:31;24.80;99.90
23697;DHT22;48864;50.820;4.400;2022-07-29T13:04:58;24.70;99.90
23697;DHT22;48864;50.820;4.400;2022-07-29T13:07:32;24.70;99.90
23697;DHT22;48864;50.820;4.400;2022-07-29T13:12:39;24.80;99.90
23697;DHT22;48864;50.820;4.400;2022-07-29T13:15:15;24.90;99.90
23697;DHT22;48864;50.820;4.400;2022-07-29T13:17:44;24.90;99.90
23697;DHT22;48864;50.820;4.400;2022-07-29T13:20:11;25.00;99.90
23697;DHT22;48864;50.820;4.400;2022-07-29T13:22:46;25.10;99.90
23697;DHT22;48864;50.820;4.400;2022-07-29T13:25:12;25.00;99.90
23697;DHT22;48864;50.820;4.400;2022-07-29T13:27:38;25.10;99.90
23697;DHT22;48864;50.820;4.400;2022-07-29T13:30:09;25.20;99.90
23697;DHT22;48864;50.820;4.400;2022-07-29T13:32:35;24.90;99.90
23697;DHT22;48864;50.820;4.400;2022-07-29T13:35:07;24.80;99.90
23697;DHT22;48864;50.820;4.400;2022-07-29T13:37:42;24.90;99.90
23697;DHT22;48864;50.820;4.400;2022-07-29T13:40:11;24.80;99.90
23697;DHT22;48864;50.820;4.400;2022-07-29T13:42:38;24.90;99.90
23697;DHT22;48864;50.820;4.400;2022-07-29T13:45:10;25.00;99.90
23697;DHT22;48864;50.820;4.400;2022-07-29T13:47:39;25.20;99.90
23697;DHT22;48864;50.820;4.400;2022-07-29T13:50:06;25.30;99.90
23697;DHT22;48864;50.820;4.400;2022-07-29T13:52:35;25.30;99.90
23697;DHT22;48864;50.820;4.400;2022-07-29T13:55:04;25.20;99.90
23697;DHT22;48864;50.820;4.400;2022-07-29T13:57:30;25.10;99.90
23697;DHT22;48864;50.820;4.400;2022-07-29T13:59:59;25.30;99.90
23697;DHT22;48864;50.820;4.400;2022-07-29T14:02:24;25.50;99.90
23697;DHT22;48864;50.820;4.400;2022-07-29T14:08:17;25.80;99.90
23697;DHT22;48864;50.820;4.400;2022-07-29T14:10:43;26.00;99.90
23697;DHT22;48864;50.820;4.400;2022-07-29T14:13:08;26.10;99.90
23697;DHT22;48864;50.820;4.400;2022-07-29T14:15:34;26.10;99.90
23697;DHT22;48864;50.820;4.400;2022-07-29T14:18:01;25.90;99.90
23697;DHT22;48864;50.820;4.400;2022-07-29T14:20:26;25.80;99.90
23697;DHT22;48864;50.820;4.400;2022-07-29T14:22:55;25.70;99.90
23697;DHT22;48864;50.820;4.400;2022-07-29T14:25:20;25.90;99.90
23697;DHT22;48864;50.820;4.400;2022-07-29T14:27:46;26.30;99.90
23697;DHT22;48864;50.820;4.400;2022-07-29T14:30:12;26.30;99.90
23697;DHT22;48864;50.820;4.400;2022-07-29T14:32:37;26.40;99.90
23697;DHT22;48864;50.820;4.400;2022-07-29T14:35:04;26.40;99.90
23697;DHT22;48864;50.820;4.400;2022-07-29T14:37:29;26.40;99.90
23697;DHT22;48864;50.820;4.400;2022-07-29T14:39:55;26.30;99.90
23697;DHT22;48864;50.820;4.400;2022-07-29T14:42:24;26.40;99.90
23697;DHT22;48864;50.820;4.400;2022-07-29T14:44:50;26.60;99.90
23697;DHT22;48864;50.820;4.400;2022-07-29T14:47:16;26.80;99.90
23697;DHT22;48864;50.820;4.400;2022-07-29T14:49:41;26.80;99.90
23697;DHT22;48864;50.820;4.400;2022-07-29T14:52:07;26.70;99.90
23697;DHT22;48864;50.820;4.400;2022-07-29T14:54:32;26.50;99.90
23697;DHT22;48864;50.820;4.400;2022-07-29T14:56:58;26.50;99.90
23697;DHT22;48864;50.820;4.400;2022-07-29T14:59:23;26.40;99.90
23697;DHT22;48864;50.820;4.400;2022-07-29T15:01:49;26.40;99.90
23697;DHT22;48864;50.820;4.400;2022-07-29T15:04:15;26.60;99.90
23697;DHT22;48864;50.820;4.400;2022-07-29T15:06:40;27.00;99.90
23697;DHT22;48864;50.820;4.400;2022-07-29T15:09:06;27.30;99.90
23697;DHT22;48864;50.820;4.400;2022-07-29T15:11:32;27.40;99.90
23697;DHT22;48864;50.820;4.400;2022-07-29T15:13:57;27.50;99.90
23697;DHT22;48864;50.820;4.400;2022-07-29T15:16:23;27.50;99.90
23697;DHT22;48864;50.820;4.400;2022-07-29T15:18:49;27.40;99.90
23697;DHT22;48864;50.820;4.400;2022-07-29T15:21:15;27.30;99.90
23697;DHT22;48864;50.820;4.400;2022-07-29T15:23:40;27.40;99.90
23697;DHT22;48864;50.820;4.400;2022-07-29T15:26:06;27.60;99.90
23697;DHT22;48864;50.820;4.400;2022-07-29T15:28:31;27.60;99.90
23697;DHT22;48864;50.820;4.400;2022-07-29T15:30:57;27.60;99.90
23697;DHT22;48864;50.820;4.400;2022-07-29T15:33:23;27.60;99.90
23697;DHT22;48864;50.820;4.400;2022-07-29T15:35:49;27.50;99.90
23697;DHT22;48864;50.820;4.400;2022-07-29T15:38:16;27.30;99.90
23697;DHT22;48864;50.820;4.400;2022-07-29T15:40:41;27.20;99.90
23697;DHT22;48864;50.820;4.400;2022-07-29T15:43:09;27.40;99.90
23697;DHT22;48864;50.820;4.400;2022-07-29T15:45:38;27.50;99.90
23697;DHT22;48864;50.820;4.400;2022-07-29T15:48:05;27.70;99.90
23697;DHT22;48864;50.820;4.400;2022-07-29T15:50:32;27.60;99.90
23697;DHT22;48864;50.820;4.400;2022-07-29T15:52:57;27.60;99.90
23697;DHT22;48864;50.820;4.400;2022-07-29T15:55:23;27.70;99.90
23697;DHT22;48864;50.820;4.400;2022-07-29T15:57:49;27.70;99.90
23697;DHT22;48864;50.820;4.400;2022-07-29T16:00:15;27.90;99.90
23697;DHT22;48864;50.820;4.400;2022-07-29T16:02:42;28.00;99.90
23697;DHT22;48864;50.820;4.400;2022-07-29T16:05:08;27.70;99.90
23697;DHT22;48864;50.820;4.400;2022-07-29T16:07:34;27.50;99.90
23697;DHT22;48864;50.820;4.400;2022-07-29T16:10:00;27.50;99.90
23697;DHT22;48864;50.820;4.400;2022-07-29T16:12:25;27.50;99.90
23697;DHT22;48864;50.820;4.400;2022-07-29T16:14:51;27.70;99.90
23697;DHT22;48864;50.820;4.400;2022-07-29T16:17:17;27.90;99.90